createdAt,value
2022-10-08T00:02:09.535Z,12.67
2022-10-08T00:07:56.153Z,12.68
2022-10-08T00:13:44.931Z,12.63
2022-10-08T00:19:31.665Z,12.67
2022-10-08T00:25:18.777Z,12.77
2022-10-08T00:31:07.573Z,12.71
2022-10-08T00:36:56.068Z,12.73
2022-10-08T00:42:43.695Z,12.82
2022-10-08T00:48:30.469Z,12.77
2022-10-08T00:54:19.690Z,12.39
2022-10-08T01:00:14.203Z,12.55
2022-10-08T01:06:27.764Z,12.55
2022-10-08T01:12:45.047Z,12.51
2022-10-08T01:18:52.581Z,12.60
2022-10-08T01:25:11.230Z,12.41
2022-10-08T01:31:00.505Z,12.32
2022-10-08T01:36:50.863Z,12.29
2022-10-08T01:42:40.917Z,12.39
2022-10-08T01:48:33.816Z,12.30
2022-10-08T01:54:22.537Z,12.14
2022-10-08T02:00:11.271Z,12.08
2022-10-08T02:06:04.365Z,11.97
2022-10-08T02:11:50.979Z,11.98
2022-10-08T02:17:43.859Z,11.88
2022-10-08T02:23:57.823Z,11.91
2022-10-08T02:30:01.367Z,11.63
2022-10-08T02:35:51.771Z,11.74
2022-10-08T02:41:47.908Z,11.58
2022-10-08T02:47:38.462Z,11.67
2022-10-08T02:53:25.781Z,11.70
2022-10-08T02:59:14.603Z,11.52
2022-10-08T03:05:05.725Z,11.59
2022-10-08T03:10:52.994Z,11.52
2022-10-08T03:16:44.733Z,11.45
2022-10-08T03:22:31.838Z,11.38
2022-10-08T03:28:18.498Z,11.27
2022-10-08T03:34:05.581Z,11.21
2022-10-08T03:39:52.254Z,11.06
2022-10-08T03:45:38.862Z,11.05
2022-10-08T03:51:25.542Z,11.07
2022-10-08T03:57:12.085Z,11.02
2022-10-08T04:02:58.671Z,11.02
2022-10-08T04:08:45.419Z,10.99
2022-10-08T04:14:31.977Z,10.92
2022-10-08T04:20:18.544Z,10.91
2022-10-08T04:26:06.150Z,10.83
2022-10-08T04:31:52.789Z,10.78
2022-10-08T04:37:39.380Z,10.78
2022-10-08T04:43:25.969Z,10.65
2022-10-08T04:49:12.676Z,10.61
2022-10-08T04:54:59.294Z,10.65
2022-10-08T05:00:45.834Z,10.65
2022-10-08T05:06:32.430Z,10.63
2022-10-08T05:12:19.042Z,10.46
2022-10-08T05:18:05.690Z,10.36
2022-10-08T05:23:59.824Z,10.44
2022-10-08T05:29:46.478Z,10.33
2022-10-08T05:35:38.124Z,10.32
2022-10-08T05:41:29.551Z,10.29
2022-10-08T09:44:17.196Z,16.44
2022-10-08T09:50:22.536Z,17.23
2022-10-08T09:56:10.802Z,17.71
2022-10-08T10:01:58.518Z,17.95
2022-10-08T10:07:46.146Z,17.78
2022-10-08T10:13:38.267Z,17.84
2022-10-08T10:19:32.287Z,17.98
2022-10-08T10:25:35.762Z,18.28
2022-10-08T10:31:27.148Z,18.46
2022-10-08T10:37:29.204Z,18.63
2022-10-08T10:43:33.956Z,18.46
2022-10-08T10:49:24.934Z,18.32
2022-10-08T10:55:33.192Z,18.36
2022-10-08T11:01:29.602Z,18.27
2022-10-08T11:07:16.251Z,18.60
2022-10-08T11:13:35.488Z,18.69
2022-10-08T11:19:47.771Z,18.49
2022-10-08T11:26:17.783Z,17.65
2022-10-08T11:32:01.861Z,18.19
2022-10-08T11:38:10.294Z,18.35
2022-10-08T11:44:04.419Z,18.26
2022-10-08T11:49:55.406Z,18.37
2022-10-08T11:55:55.814Z,18.39
2022-10-08T12:01:56.506Z,18.00
2022-10-08T12:07:51.555Z,18.24
2022-10-08T12:13:38.254Z,18.43
2022-10-08T12:19:37.104Z,18.30
2022-10-08T12:25:38.693Z,17.77
2022-10-08T12:31:40.232Z,18.28
2022-10-08T12:37:45.699Z,18.32
2022-10-08T12:43:51.417Z,18.19
2022-10-08T12:49:44.982Z,17.78
2022-10-08T12:55:38.399Z,16.94
2022-10-08T13:01:25.924Z,17.56
2022-10-08T13:07:25.849Z,17.98
2022-10-08T13:13:31.208Z,17.35
2022-10-08T13:19:28.150Z,17.09
2022-10-08T13:25:50.405Z,17.43
2022-10-08T13:31:37.148Z,17.68
2022-10-08T13:37:41.974Z,17.79
2022-10-08T13:43:30.425Z,17.94
2022-10-08T13:49:23.725Z,17.88
2022-10-08T13:55:27.227Z,17.93
2022-10-08T14:01:14.041Z,17.60
2022-10-08T14:07:02.449Z,17.24
2022-10-08T14:12:49.164Z,17.34
2022-10-08T14:18:35.965Z,17.40
2022-10-08T14:24:23.426Z,17.41
2022-10-08T14:30:12.992Z,17.10
2022-10-08T14:35:59.667Z,17.19
2022-10-08T14:41:49.292Z,17.32
2022-10-08T14:47:36.192Z,17.31
2022-10-08T14:53:22.992Z,17.12
2022-10-08T14:59:10.847Z,17.18
2022-10-08T15:05:01.579Z,17.36
2022-10-08T15:10:48.442Z,17.28
2022-10-08T15:16:35.334Z,17.26
2022-10-08T15:22:25.278Z,17.31
2022-10-08T15:28:12.008Z,17.01
2022-10-08T15:33:59.687Z,16.65
2022-10-08T15:39:46.339Z,16.65
2022-10-08T15:45:42.650Z,16.77
2022-10-08T15:51:33.724Z,16.80
2022-10-08T15:57:23.450Z,16.69
2022-10-08T16:03:10.101Z,16.79
2022-10-08T16:08:57.966Z,16.75
2022-10-08T16:14:44.555Z,16.86
2022-10-08T16:20:31.162Z,16.72
2022-10-08T16:26:22.708Z,16.66
2022-10-08T16:32:11.035Z,16.79
2022-10-08T16:37:57.793Z,16.57
2022-10-08T16:43:51.882Z,16.68
2022-10-08T16:49:40.089Z,16.56
2022-10-08T16:55:27.342Z,16.28
2022-10-08T17:01:14.069Z,16.27
2022-10-08T17:07:00.900Z,16.06
2022-10-08T17:12:51.661Z,15.95
2022-10-08T17:18:38.971Z,15.78
2022-10-08T17:24:27.967Z,15.71
2022-10-08T17:30:15.810Z,15.60
2022-10-08T17:36:05.734Z,15.43
2022-10-08T17:41:52.698Z,15.33
2022-10-08T17:47:39.489Z,15.23
2022-10-08T17:53:28.998Z,14.97
2022-10-08T17:59:24.082Z,14.94
2022-10-08T18:05:20.361Z,14.83
2022-10-08T18:11:18.281Z,14.61
2022-10-08T18:17:06.803Z,14.43
2022-10-08T18:22:53.861Z,14.37
2022-10-08T18:28:43.348Z,14.10
2022-10-08T18:34:30.402Z,13.98
2022-10-08T18:40:17.932Z,13.75
2022-10-08T18:46:05.532Z,13.63
2022-10-08T18:51:53.252Z,13.40
2022-10-08T18:57:42.528Z,13.39
2022-10-08T19:03:29.325Z,13.27
2022-10-08T19:09:17.758Z,13.17
2022-10-08T19:15:05.197Z,13.03
2022-10-08T19:20:51.961Z,12.91
2022-10-08T19:26:38.977Z,12.89
2022-10-08T19:32:25.768Z,12.81
2022-10-08T19:38:12.540Z,12.82
2022-10-08T19:43:59.491Z,12.75
2022-10-08T19:49:46.537Z,12.60
2022-10-08T19:55:37.746Z,12.58
2022-10-08T20:01:27.887Z,12.55
2022-10-08T20:07:14.802Z,12.53
2022-10-08T20:13:01.646Z,12.50
2022-10-08T20:18:55.305Z,12.14
2022-10-08T20:24:42.530Z,12.17
2022-10-08T20:30:47.198Z,12.20
2022-10-08T20:36:52.047Z,12.02
2022-10-08T20:42:40.117Z,12.06
2022-10-08T20:48:29.875Z,12.06
2022-10-08T20:54:18.302Z,12.02
2022-10-08T21:00:36.247Z,11.91
2022-10-08T21:06:26.051Z,11.86
2022-10-08T21:12:12.928Z,11.74
2022-10-08T21:17:59.798Z,11.73
2022-10-08T21:23:49.012Z,11.74
2022-10-08T21:29:38.404Z,11.66
2022-10-08T21:35:25.218Z,11.60
2022-10-08T21:41:19.980Z,11.58
2022-10-08T21:47:14.645Z,11.45
2022-10-08T21:53:03.704Z,11.34
2022-10-08T21:58:55.748Z,11.18
2022-10-08T22:04:45.015Z,11.26
2022-10-08T22:10:32.500Z,11.23
2022-10-08T22:16:24.673Z,11.21
2022-10-08T22:22:11.509Z,11.08
2022-10-08T22:27:59.381Z,11.07
2022-10-08T22:33:48.927Z,10.94
2022-10-08T22:39:35.699Z,10.97
2022-10-08T22:45:23.220Z,11.02
2022-10-08T22:51:21.732Z,11.10
2022-10-08T22:57:08.528Z,10.78
2022-10-08T23:02:55.255Z,10.71
2022-10-08T23:08:42.754Z,10.78
2022-10-08T23:14:29.409Z,10.84
2022-10-08T23:20:16.178Z,10.64
2022-10-08T23:26:05.206Z,10.62
2022-10-08T23:31:53.260Z,10.65
2022-10-08T23:37:39.965Z,10.54
2022-10-08T23:43:28.623Z,10.55
2022-10-08T23:49:15.519Z,10.40
2022-10-08T23:55:23.178Z,10.49
